Time;durP1;ratioP1;P1;durP2;ratioP2;P2;SDS_P1;SDS_P2;PMS_P1;PMS_P2;Temp;Humidity;BMP_temperature;BMP_pressure;BME280_temperature;BME280_humidity;BME280_pressure;Samples;Min_cycle;Max_cycle;Signal;HPM_P1;HPM_P2
2023/05/22 00:01:28;;;;;;;60.33;30.92;;;;;;;;;;4970350;28;99775;-79
2023/05/22 00:03:55;;;;;;;49.03;29.92;;;;;;;;;;4969278;28;100150;-80
2023/05/22 00:06:23;;;;;;;43.28;27.98;;;;;;;;;;4969440;28;98250;-79
2023/05/22 00:08:54;;;;;;;54.50;28.83;;;;;;;;;;4971847;28;98635;-79
2023/05/22 00:11:21;;;;;;;56.38;30.45;;;;;;;;;;4968743;28;98409;-79
2023/05/22 00:13:48;;;;;;;57.22;30.80;;;;;;;;;;4969766;28;99662;-79
2023/05/22 00:16:14;;;;;;;46.38;28.52;;;;;;;;;;4968492;28;100021;-79
2023/05/22 00:18:41;;;;;;;50.88;30.88;;;;;;;;;;4969988;28;98218;-79
2023/05/22 00:21:08;;;;;;;51.25;31.35;;;;;;;;;;4970064;28;99722;-79
2023/05/22 00:23:34;;;;;;;51.75;31.65;;;;;;;;;;4969573;28;100031;-81
2023/05/22 00:26:03;;;;;;;52.30;31.70;;;;;;;;;;4968831;28;98253;-79
2023/05/22 00:28:30;;;;;;;56.70;32.33;;;;;;;;;;4969077;28;98533;-79
2023/05/22 00:30:57;;;;;;;55.90;32.17;;;;;;;;;;4970173;28;98375;-80
2023/05/22 00:33:24;;;;;;;47.67;30.42;;;;;;;;;;4968412;28;98454;-78
2023/05/22 00:35:53;;;;;;;50.60;32.85;;;;;;;;;;4968025;28;101582;-80
2023/05/22 00:38:31;;;;;;;64.88;34.95;;;;;;;;;;4968381;28;98222;-80
2023/05/22 00:40:58;;;;;;;54.45;33.97;;;;;;;;;;4968054;28;101035;-80
2023/05/22 00:43:25;;;;;;;59.40;33.97;;;;;;;;;;4968905;28;98757;-79
2023/05/22 00:45:53;;;;;;;50.13;33.25;;;;;;;;;;4956810;28;98738;-80
2023/05/22 00:48:20;;;;;;;54.03;32.35;;;;;;;;;;4949783;28;98373;-78
2023/05/22 00:50:47;;;;;;;51.58;33.22;;;;;;;;;;4951678;28;100144;-80
2023/05/22 00:53:14;;;;;;;58.33;34.17;;;;;;;;;;4948096;28;101263;-80
2023/05/22 00:55:43;;;;;;;55.65;34.40;;;;;;;;;;4961124;28;101834;-79
2023/05/22 00:58:18;;;;;;;57.88;35.05;;;;;;;;;;4966675;28;99615;-79
2023/05/22 01:00:46;;;;;;;71.65;36.72;;;;;;;;;;4968312;28;98602;-79
2023/05/22 01:03:14;;;;;;;55.85;34.08;;;;;;;;;;4968951;28;98789;-80
2023/05/22 01:05:42;;;;;;;54.25;33.42;;;;;;;;;;4963211;28;98347;-79
2023/05/22 01:08:10;;;;;;;70.78;37.75;;;;;;;;;;4950029;28;99440;-80
2023/05/22 01:10:38;;;;;;;56.65;31.67;;;;;;;;;;4949460;28;99678;-80
2023/05/22 01:13:24;;;;;;;69.93;35.47;;;;;;;;;;4951068;28;98359;-80
2023/05/22 01:16:09;;;;;;;71.85;36.22;;;;;;;;;;4954722;28;100202;-79
2023/05/22 01:18:57;;;;;;;63.60;35.88;;;;;;;;;;4971190;28;98299;-78
2023/05/22 01:21:29;;;;;;;72.95;37.78;;;;;;;;;;4968105;28;99852;-80
2023/05/22 01:24:14;;;;;;;64.53;37.63;;;;;;;;;;4966557;28;101640;-80
2023/05/22 01:26:48;;;;;;;62.90;37.85;;;;;;;;;;4968054;28;98446;-78
2023/05/22 01:29:27;;;;;;;61.08;36.95;;;;;;;;;;4968315;28;99899;-79
2023/05/22 01:31:56;;;;;;;68.30;36.50;;;;;;;;;;4967219;28;101947;-80
2023/05/22 01:34:23;;;;;;;65.03;39.00;;;;;;;;;;4966302;28;98472;-80
2023/05/22 01:36:57;;;;;;;73.40;37.83;;;;;;;;;;4968697;28;99122;-80
2023/05/22 01:39:24;;;;;;;62.08;38.42;;;;;;;;;;4967004;28;98669;-80
2023/05/22 01:41:51;;;;;;;67.13;39.60;;;;;;;;;;4968095;28;99396;-80
2023/05/22 01:44:20;;;;;;;70.32;37.22;;;;;;;;;;4967773;28;99115;-79
2023/05/22 01:46:47;;;;;;;73.35;39.70;;;;;;;;;;4968483;28;98207;-79
2023/05/22 01:49:14;;;;;;;70.07;40.58;;;;;;;;;;4965689;28;99948;-79
2023/05/22 01:51:57;;;;;;;61.90;38.00;;;;;;;;;;4968173;28;100183;-80
2023/05/22 01:54:45;;;;;;;62.63;37.30;;;;;;;;;;4968248;28;98107;-80
2023/05/22 01:57:20;;;;;;;66.88;38.63;;;;;;;;;;4968293;28;98959;-79
2023/05/22 01:59:49;;;;;;;55.42;36.05;;;;;;;;;;4970131;28;101576;-80
2023/05/22 02:02:17;;;;;;;70.65;40.58;;;;;;;;;;4965994;28;99538;-80
2023/05/22 02:05:03;;;;;;;84.20;42.35;;;;;;;;;;4968468;28;99866;-79
2023/05/22 02:07:32;;;;;;;70.85;38.25;;;;;;;;;;4967892;28;98210;-80
2023/05/22 02:10:00;;;;;;;72.03;41.42;;;;;;;;;;4967727;28;98271;-80
2023/05/22 02:12:26;;;;;;;66.72;40.42;;;;;;;;;;4969208;28;98912;-79
2023/05/22 02:14:53;;;;;;;66.53;40.40;;;;;;;;;;4969823;28;98434;-80
2023/05/22 02:17:20;;;;;;;72.75;39.65;;;;;;;;;;4967588;28;99983;-79
2023/05/22 02:19:47;;;;;;;66.88;38.70;;;;;;;;;;4967981;28;99396;-79
2023/05/22 02:22:13;;;;;;;73.78;38.83;;;;;;;;;;4970233;28;98753;-79
2023/05/22 02:24:41;;;;;;;62.60;38.67;;;;;;;;;;4967328;28;100101;-79
2023/05/22 02:27:08;;;;;;;92.55;43.40;;;;;;;;;;4966483;28;98374;-78
2023/05/22 02:29:35;;;;;;;76.30;41.95;;;;;;;;;;4966039;28;101650;-80
2023/05/22 02:32:01;;;;;;;84.50;43.63;;;;;;;;;;4966046;28;101030;-81
2023/05/22 02:34:30;;;;;;;108.72;49.28;;;;;;;;;;4966325;28;98395;-80
2023/05/22 02:36:58;;;;;;;121.15;51.22;;;;;;;;;;4965791;28;101097;-80
2023/05/22 02:39:25;;;;;;;102.50;48.53;;;;;;;;;;4965828;28;101108;-79
2023/05/22 02:41:53;;;;;;;99.88;48.65;;;;;;;;;;4969444;28;98824;-80
2023/05/22 02:44:19;;;;;;;92.50;45.97;;;;;;;;;;4965366;28;101802;-80
2023/05/22 02:46:46;;;;;;;99.07;45.22;;;;;;;;;;4966876;28;98300;-79
2023/05/22 02:49:13;;;;;;;135.70;53.63;;;;;;;;;;4970810;28;101430;-79
2023/05/22 02:51:39;;;;;;;88.70;47.72;;;;;;;;;;4970218;28;99425;-80
2023/05/22 02:54:06;;;;;;;105.53;47.42;;;;;;;;;;4969759;28;98661;-80
2023/05/22 02:56:32;;;;;;;111.72;51.72;;;;;;;;;;4971298;28;98383;-80
2023/05/22 02:58:59;;;;;;;118.28;53.75;;;;;;;;;;4969917;28;98896;-79
2023/05/22 03:01:25;;;;;;;160.55;53.25;;;;;;;;;;4969169;28;98367;-79
2023/05/22 03:03:53;;;;;;;134.98;49.78;;;;;;;;;;4972182;28;101354;-81
2023/05/22 03:06:20;;;;;;;164.07;52.20;;;;;;;;;;4970412;28;98295;-79
2023/05/22 03:08:47;;;;;;;325.67;58.33;;;;;;;;;;4969344;28;99442;-80
2023/05/22 03:11:14;;;;;;;327.50;59.47;;;;;;;;;;4971226;28;99518;-79
2023/05/22 03:13:40;;;;;;;448.73;67.32;;;;;;;;;;4971685;28;98207;-81
2023/05/22 03:16:07;;;;;;;291.88;60.15;;;;;;;;;;4968644;28;101068;-78
2023/05/22 03:18:37;;;;;;;277.95;60.95;;;;;;;;;;4950109;28;100502;-79
2023/05/22 03:21:04;;;;;;;114.10;48.42;;;;;;;;;;4949733;28;98361;-79
2023/05/22 03:23:30;;;;;;;155.45;50.03;;;;;;;;;;4950835;28;99531;-80
2023/05/22 03:25:57;;;;;;;139.00;46.78;;;;;;;;;;4969218;28;100697;-79
2023/05/22 03:28:30;;;;;;;229.55;55.15;;;;;;;;;;4954853;28;100593;-80
2023/05/22 03:30:58;;;;;;;119.32;51.28;;;;;;;;;;4970153;28;100017;-78
2023/05/22 03:33:30;;;;;;;282.20;59.30;;;;;;;;;;4967661;28;99073;-79
2023/05/22 03:35:58;;;;;;;434.65;71.13;;;;;;;;;;4969200;28;100495;-81
2023/05/22 03:38:25;;;;;;;391.13;58.40;;;;;;;;;;4968794;28;101605;-79
2023/05/22 03:40:51;;;;;;;386.67;63.03;;;;;;;;;;4968396;28;98309;-80
2023/05/22 03:43:18;;;;;;;244.13;50.38;;;;;;;;;;4968815;28;101031;-81
2023/05/22 03:45:44;;;;;;;379.95;59.50;;;;;;;;;;4959664;28;100335;-80
2023/05/22 03:48:11;;;;;;;340.48;52.25;;;;;;;;;;4953668;28;98214;-80
2023/05/22 03:50:38;;;;;;;342.60;47.75;;;;;;;;;;4965480;28;99973;-78
2023/05/22 03:53:04;;;;;;;428.83;70.07;;;;;;;;;;4969228;28;98227;-80
2023/05/22 03:55:31;;;;;;;213.45;45.50;;;;;;;;;;4967903;28;99947;-79
2023/05/22 03:57:57;;;;;;;295.70;58.92;;;;;;;;;;4970065;28;98665;-80
2023/05/22 04:00:24;;;;;;;272.15;48.40;;;;;;;;;;4967578;28;98211;-80
2023/05/22 04:02:53;;;;;;;302.80;51.85;;;;;;;;;;4970078;28;100029;-79
2023/05/22 04:05:23;;;;;;;476.95;62.50;;;;;;;;;;4969918;28;98792;-79
2023/05/22 04:07:49;;;;;;;530.20;60.60;;;;;;;;;;4970270;28;98226;-79
2023/05/22 04:10:16;;;;;;;430.95;54.45;;;;;;;;;;4974724;28;101261;-79
2023/05/22 04:12:42;;;;;;;361.73;47.75;;;;;;;;;;4970922;28;98246;-80
2023/05/22 04:15:11;;;;;;;263.63;56.70;;;;;;;;;;4969160;28;99611;-80
2023/05/22 04:17:38;;;;;;;390.73;56.42;;;;;;;;;;4968980;28;99562;-80
2023/05/22 04:20:05;;;;;;;218.95;44.63;;;;;;;;;;4969144;28;99353;-79
2023/05/22 04:22:32;;;;;;;214.77;46.33;;;;;;;;;;4968596;28;101303;-79
2023/05/22 04:24:59;;;;;;;153.50;42.28;;;;;;;;;;4970719;28;99776;-79
2023/05/22 04:27:25;;;;;;;115.90;41.92;;;;;;;;;;4970415;28;98232;-79
2023/05/22 04:29:52;;;;;;;128.05;41.83;;;;;;;;;;4970978;28;101466;-81
2023/05/22 04:32:20;;;;;;;168.65;45.72;;;;;;;;;;4977012;28;101681;-79
2023/05/22 04:34:49;;;;;;;68.53;39.33;;;;;;;;;;4976675;28;98278;-81
2023/05/22 04:37:19;;;;;;;97.20;40.55;;;;;;;;;;4969642;28;99114;-80
2023/05/22 04:39:47;;;;;;;52.00;35.88;;;;;;;;;;4969141;28;98182;-79
2023/05/22 04:42:14;;;;;;;52.20;35.67;;;;;;;;;;4969957;28;99928;-79
2023/05/22 04:44:41;;;;;;;49.50;33.38;;;;;;;;;;4970100;28;98869;-79
2023/05/22 04:47:13;;;;;;;58.50;35.42;;;;;;;;;;4969109;28;99268;-79
2023/05/22 04:49:41;;;;;;;56.45;34.35;;;;;;;;;;4970511;28;99930;-79
2023/05/22 04:52:10;;;;;;;52.13;34.95;;;;;;;;;;4971611;28;102233;-78
2023/05/22 04:54:37;;;;;;;65.32;36.30;;;;;;;;;;4969020;28;101102;-80
2023/05/22 04:57:04;;;;;;;54.53;34.33;;;;;;;;;;4968897;28;101875;-79
2023/05/22 04:59:38;;;;;;;47.05;33.67;;;;;;;;;;4968358;28;98235;-79
2023/05/22 05:02:05;;;;;;;54.35;33.78;;;;;;;;;;4970538;28;98359;-79
2023/05/22 05:04:31;;;;;;;48.92;32.20;;;;;;;;;;4969301;28;100037;-79
2023/05/22 05:06:58;;;;;;;56.38;34.10;;;;;;;;;;4967148;28;98397;-80
2023/05/22 05:09:25;;;;;;;59.67;34.33;;;;;;;;;;4967833;28;102117;-79
2023/05/22 05:11:51;;;;;;;57.22;33.40;;;;;;;;;;4967255;28;101594;-79
2023/05/22 05:14:18;;;;;;;47.15;33.10;;;;;;;;;;4970473;28;98337;-78
2023/05/22 05:16:45;;;;;;;46.42;33.08;;;;;;;;;;4968141;28;99066;-78
2023/05/22 05:19:12;;;;;;;42.17;28.15;;;;;;;;;;4949771;28;98304;-80
2023/05/22 05:21:38;;;;;;;48.10;30.85;;;;;;;;;;4948908;28;99458;-78
2023/05/22 05:24:05;;;;;;;49.38;30.75;;;;;;;;;;4949095;28;101642;-81
2023/05/22 05:26:35;;;;;;;41.88;29.38;;;;;;;;;;4950513;28;98279;-79
2023/05/22 05:29:01;;;;;;;40.22;28.15;;;;;;;;;;4962940;28;100350;-79
2023/05/22 05:31:35;;;;;;;50.15;27.48;;;;;;;;;;4966292;28;101805;-79
2023/05/22 05:34:24;;;;;;;43.30;27.02;;;;;;;;;;4969323;28;97991;-79
2023/05/22 05:36:56;;;;;;;37.15;26.92;;;;;;;;;;4966808;28;99729;-79
2023/05/22 05:39:24;;;;;;;37.50;26.35;;;;;;;;;;4967006;28;98613;-78
2023/05/22 05:41:51;;;;;;;36.58;25.45;;;;;;;;;;4964271;28;100560;-79
2023/05/22 05:44:19;;;;;;;40.58;27.25;;;;;;;;;;4969211;28;102136;-80
2023/05/22 05:46:45;;;;;;;28.20;23.27;;;;;;;;;;4968563;28;98260;-81
2023/05/22 05:49:18;;;;;;;35.00;25.73;;;;;;;;;;4968191;28;99047;-79
2023/05/22 05:51:45;;;;;;;30.25;23.65;;;;;;;;;;4965437;28;99424;-81
2023/05/22 05:54:13;;;;;;;35.55;24.38;;;;;;;;;;4955769;28;98660;-79
2023/05/22 05:56:40;;;;;;;32.92;23.15;;;;;;;;;;4947597;28;99874;-79
2023/05/22 05:59:08;;;;;;;34.38;24.60;;;;;;;;;;4954910;28;101984;-78
2023/05/22 06:01:56;;;;;;;35.55;22.52;;;;;;;;;;4957978;28;98635;-80
2023/05/22 06:04:27;;;;;;;32.78;23.20;;;;;;;;;;4969149;28;98992;-78
2023/05/22 06:07:00;;;;;;;36.42;24.67;;;;;;;;;;4967404;28;98354;-82
2023/05/22 06:09:38;;;;;;;29.65;22.70;;;;;;;;;;4949397;28;101078;-78
2023/05/22 06:12:14;;;;;;;27.58;21.15;;;;;;;;;;4946623;28;101395;-78
2023/05/22 06:14:43;;;;;;;28.63;20.80;;;;;;;;;;4951172;28;99272;-78
2023/05/22 06:17:18;;;;;;;22.20;19.48;;;;;;;;;;4959134;28;98962;-79
2023/05/22 06:19:46;;;;;;;23.17;18.08;;;;;;;;;;4964283;28;101397;-79
2023/05/22 06:22:13;;;;;;;20.80;18.58;;;;;;;;;;4969171;28;98754;-79
2023/05/22 06:24:42;;;;;;;23.77;17.98;;;;;;;;;;4969432;28;100938;-78
2023/05/22 06:27:14;;;;;;;23.00;17.97;;;;;;;;;;4962500;28;99484;-79
2023/05/22 06:29:40;;;;;;;25.85;17.63;;;;;;;;;;4965318;28;99007;-77
2023/05/22 06:32:07;;;;;;;21.85;16.60;;;;;;;;;;4970710;28;101654;-78
2023/05/22 06:34:35;;;;;;;22.55;16.00;;;;;;;;;;4970181;28;98276;-78
2023/05/22 06:37:02;;;;;;;20.67;16.98;;;;;;;;;;4966473;28;99350;-78
2023/05/22 06:39:34;;;;;;;21.95;16.60;;;;;;;;;;4950185;28;100978;-78
2023/05/22 06:42:40;;;;;;;17.90;16.00;;;;;;;;;;4940420;28;98252;-78
2023/05/22 06:45:25;;;;;;;22.75;17.50;;;;;;;;;;4939805;28;98499;-78
2023/05/22 06:48:18;;;;;;;18.88;16.77;;;;;;;;;;4949639;28;98582;-79
2023/05/22 06:51:01;;;;;;;22.25;16.55;;;;;;;;;;4949951;28;101097;-76
2023/05/22 06:53:28;;;;;;;17.75;14.60;;;;;;;;;;4949843;28;101143;-76
2023/05/22 06:55:55;;;;;;;16.35;14.18;;;;;;;;;;4950688;28;98309;-77
2023/05/22 06:58:45;;;;;;;15.18;13.60;;;;;;;;;;4952949;28;100831;-77
2023/05/22 07:01:13;;;;;;;15.25;13.60;;;;;;;;;;4950561;28;101747;-77
2023/05/22 07:03:49;;;;;;;28.02;13.18;;;;;;;;;;4966482;28;98523;-77
2023/05/22 07:06:32;;;;;;;14.68;13.25;;;;;;;;;;4952531;28;98970;-77
2023/05/22 07:09:01;;;;;;;16.60;14.65;;;;;;;;;;4949850;28;99235;-80
2023/05/22 07:11:28;;;;;;;16.40;14.32;;;;;;;;;;4948979;28;99520;-79
2023/05/22 07:13:56;;;;;;;16.05;14.55;;;;;;;;;;4950490;28;99564;-80
2023/05/22 07:16:24;;;;;;;16.23;14.50;;;;;;;;;;4953090;28;98301;-79
2023/05/22 07:18:51;;;;;;;16.33;14.18;;;;;;;;;;4950301;28;100711;-80
2023/05/22 07:21:18;;;;;;;14.95;13.57;;;;;;;;;;4950248;28;101944;-80
2023/05/22 07:23:46;;;;;;;15.77;14.20;;;;;;;;;;4952226;28;98233;-77
2023/05/22 07:26:12;;;;;;;15.73;14.25;;;;;;;;;;4949859;28;99000;-79
2023/05/22 07:28:46;;;;;;;21.50;14.65;;;;;;;;;;4952491;28;101266;-80
2023/05/22 07:31:13;;;;;;;16.08;14.38;;;;;;;;;;4965471;28;99511;-79
2023/05/22 07:33:39;;;;;;;16.98;15.25;;;;;;;;;;4968152;28;101580;-78
2023/05/22 07:36:06;;;;;;;17.38;15.57;;;;;;;;;;4969125;28;98264;-79
2023/05/22 07:38:35;;;;;;;16.42;14.73;;;;;;;;;;4966194;28;101167;-79
2023/05/22 07:41:03;;;;;;;16.33;14.73;;;;;;;;;;4967726;28;101239;-79
2023/05/22 07:43:31;;;;;;;15.82;14.25;;;;;;;;;;4968716;28;98538;-79
2023/05/22 07:45:59;;;;;;;17.02;15.40;;;;;;;;;;4957211;28;101076;-79
2023/05/22 07:48:32;;;;;;;16.20;14.52;;;;;;;;;;4949032;28;101651;-78
2023/05/22 07:50:59;;;;;;;15.55;13.90;;;;;;;;;;4972034;28;98249;-78
2023/05/22 07:53:25;;;;;;;16.58;14.73;;;;;;;;;;4968423;28;101149;-79
2023/05/22 07:56:00;;;;;;;15.55;14.00;;;;;;;;;;4963879;28;98294;-80
2023/05/22 07:58:30;;;;;;;15.45;13.95;;;;;;;;;;4958591;28;100645;-79
2023/05/22 08:00:57;;;;;;;20.63;14.38;;;;;;;;;;4948047;28;101539;-77
2023/05/22 08:03:24;;;;;;;16.23;14.57;;;;;;;;;;4984269;28;98257;-79
2023/05/22 08:05:53;;;;;;;15.48;14.00;;;;;;;;;;4987026;28;99410;-80
2023/05/22 08:08:20;;;;;;;14.73;13.38;;;;;;;;;;4968531;28;99084;-80
2023/05/22 08:10:47;;;;;;;15.00;13.60;;;;;;;;;;4969594;28;98146;-79
2023/05/22 08:13:29;;;;;;;15.75;14.10;;;;;;;;;;4972289;28;100850;-79
2023/05/22 08:15:56;;;;;;;15.55;13.48;;;;;;;;;;4968936;28;98336;-78
2023/05/22 08:18:39;;;;;;;14.88;13.07;;;;;;;;;;4969307;28;99623;-78
2023/05/22 08:21:09;;;;;;;15.27;13.75;;;;;;;;;;4968527;28;99989;-79
2023/05/22 08:23:37;;;;;;;15.23;13.82;;;;;;;;;;4979705;28;98298;-80
2023/05/22 08:26:04;;;;;;;23.80;13.35;;;;;;;;;;4989443;28;99678;-78
2023/05/22 08:28:31;;;;;;;15.30;13.13;;;;;;;;;;4968226;28;99946;-78
2023/05/22 08:30:57;;;;;;;15.57;13.98;;;;;;;;;;4969127;28;98397;-77
2023/05/22 08:33:24;;;;;;;21.00;13.70;;;;;;;;;;4969265;28;99721;-78
2023/05/22 08:35:52;;;;;;;13.95;12.70;;;;;;;;;;4971894;28;100044;-78
2023/05/22 08:38:20;;;;;;;15.57;13.98;;;;;;;;;;4969294;28;100795;-77
2023/05/22 08:40:48;;;;;;;15.20;13.60;;;;;;;;;;4969228;28;99885;-79
2023/05/22 08:43:16;;;;;;;16.45;14.32;;;;;;;;;;4968729;28;98286;-77
2023/05/22 08:45:46;;;;;;;17.65;13.68;;;;;;;;;;4968891;28;98492;-78
2023/05/22 08:48:12;;;;;;;15.15;13.52;;;;;;;;;;4968307;28;101482;-77
2023/05/22 08:50:40;;;;;;;14.90;13.48;;;;;;;;;;4969066;28;98290;-77
2023/05/22 08:53:10;;;;;;;15.18;13.63;;;;;;;;;;4969993;28;98491;-78
2023/05/22 08:55:36;;;;;;;18.45;15.07;;;;;;;;;;4969818;28;99956;-78
2023/05/22 08:58:03;;;;;;;16.08;14.43;;;;;;;;;;4972465;28;98352;-78
2023/05/22 09:00:29;;;;;;;15.45;13.85;;;;;;;;;;4967925;28;100304;-77
2023/05/22 09:02:56;;;;;;;15.80;14.25;;;;;;;;;;4969396;28;98017;-78
2023/05/22 09:05:25;;;;;;;17.58;15.75;;;;;;;;;;4968549;28;99336;-78
2023/05/22 09:07:55;;;;;;;17.00;15.30;;;;;;;;;;4968440;28;98945;-77
2023/05/22 09:10:30;;;;;;;16.40;13.63;;;;;;;;;;4969943;28;98517;-80
2023/05/22 09:13:04;;;;;;;16.00;14.43;;;;;;;;;;4968793;28;99736;-79
2023/05/22 09:15:32;;;;;;;18.77;14.60;;;;;;;;;;4968471;28;98951;-79
2023/05/22 09:17:58;;;;;;;18.48;15.93;;;;;;;;;;4970048;28;98477;-80
2023/05/22 09:20:25;;;;;;;19.05;15.60;;;;;;;;;;4968746;28;98882;-79
2023/05/22 09:22:53;;;;;;;20.98;16.50;;;;;;;;;;4968716;28;98039;-78
2023/05/22 09:25:20;;;;;;;19.98;17.70;;;;;;;;;;4966177;28;98231;-76
2023/05/22 09:27:47;;;;;;;19.60;16.83;;;;;;;;;;4968083;28;99123;-76
2023/05/22 09:30:16;;;;;;;18.50;16.58;;;;;;;;;;4968416;28;98341;-78
2023/05/22 09:32:49;;;;;;;18.02;15.73;;;;;;;;;;4967754;28;99363;-77
2023/05/22 09:35:18;;;;;;;19.52;17.20;;;;;;;;;;4968542;28;100436;-78
2023/05/22 09:37:45;;;;;;;19.88;16.33;;;;;;;;;;4976992;28;98259;-78
2023/05/22 09:40:13;;;;;;;18.17;15.43;;;;;;;;;;4981616;28;99744;-78
2023/05/22 09:42:43;;;;;;;17.48;15.63;;;;;;;;;;4976115;28;98081;-77
2023/05/22 09:45:10;;;;;;;18.42;15.88;;;;;;;;;;4969376;28;99490;-77
2023/05/22 09:47:37;;;;;;;16.92;14.00;;;;;;;;;;4968259;28;100177;-78
2023/05/22 09:50:09;;;;;;;19.00;14.80;;;;;;;;;;4968565;28;99360;-79
2023/05/22 09:52:35;;;;;;;16.25;13.60;;;;;;;;;;4968607;28;99647;-79
2023/05/22 09:55:03;;;;;;;21.52;13.77;;;;;;;;;;4967476;28;100493;-78
2023/05/22 09:57:41;;;;;;;14.70;13.25;;;;;;;;;;4967626;28;98254;-80
2023/05/22 10:00:11;;;;;;;17.85;13.20;;;;;;;;;;4971226;28;99242;-80
2023/05/22 10:02:40;;;;;;;16.08;12.93;;;;;;;;;;4974862;28;99492;-79
2023/05/22 10:05:08;;;;;;;13.98;12.45;;;;;;;;;;4971907;28;99383;-79
2023/05/22 10:07:37;;;;;;;15.32;12.23;;;;;;;;;;4964013;28;99202;-80
2023/05/22 10:10:06;;;;;;;;;;;;;;;;;;4967026;28;100451;-79
2023/05/22 10:12:35;;;;;;;12.52;11.23;;;;;;;;;;4958795;28;129251;-79
2023/05/22 10:15:02;;;;;;;12.32;11.10;;;;;;;;;;4970914;28;99506;-80
2023/05/22 10:17:30;;;;;;;13.27;10.88;;;;;;;;;;4970043;28;98298;-80
2023/05/22 10:19:58;;;;;;;23.45;13.15;;;;;;;;;;4990294;28;99290;-78
2023/05/22 10:22:26;;;;;;;11.10;10.10;;;;;;;;;;4990107;28;99941;-79
2023/05/22 10:24:52;;;;;;;13.68;11.15;;;;;;;;;;4993755;28;98276;-79
2023/05/22 10:27:19;;;;;;;13.18;11.80;;;;;;;;;;4982352;28;100142;-78
2023/05/22 10:29:48;;;;;;;13.18;11.88;;;;;;;;;;4970291;28;98902;-78
2023/05/22 10:32:22;;;;;;;13.25;11.88;;;;;;;;;;4970756;28;99489;-77
2023/05/22 10:34:55;;;;;;;14.40;11.23;;;;;;;;;;4970205;28;101421;-79
2023/05/22 10:37:36;;;;;;;15.48;12.57;;;;;;;;;;4970356;28;98341;-78
2023/05/22 10:40:07;;;;;;;13.32;11.93;;;;;;;;;;4972055;28;100028;-78
2023/05/22 10:42:35;;;;;;;18.58;12.40;;;;;;;;;;4971002;28;99961;-80
2023/05/22 10:45:03;;;;;;;13.63;12.25;;;;;;;;;;4973065;28;98620;-77
2023/05/22 10:47:32;;;;;;;19.73;12.75;;;;;;;;;;4975175;28;99458;-78
2023/05/22 10:50:16;;;;;;;13.32;11.73;;;;;;;;;;4972434;28;98429;-78
2023/05/22 10:52:43;;;;;;;16.33;13.13;;;;;;;;;;4970778;28;99316;-79
2023/05/22 10:55:11;;;;;;;14.85;12.60;;;;;;;;;;4971165;28;98912;-78
2023/05/22 10:57:38;;;;;;;19.05;13.27;;;;;;;;;;4954280;28;98430;-78
2023/05/22 11:00:08;;;;;;;16.75;12.32;;;;;;;;;;4969066;28;99464;-77
2023/05/22 11:02:39;;;;;;;14.25;11.68;;;;;;;;;;4970160;28;100281;-78
2023/05/22 11:05:17;;;;;;;10.63;9.63;;;;;;;;;;4970420;28;99308;-78
2023/05/22 11:07:44;;;;;;;11.40;10.30;;;;;;;;;;4970404;28;98603;-79
2023/05/22 11:10:11;;;;;;;11.82;9.57;;;;;;;;;;4972445;28;98197;-78
2023/05/22 11:12:37;;;;;;;11.77;10.30;;;;;;;;;;4970294;28;99400;-76
2023/05/22 11:15:08;;;;;;;17.05;10.60;;;;;;;;;;4970429;28;98841;-77
2023/05/22 11:17:50;;;;;;;17.48;8.80;;;;;;;;;;4981102;28;98199;-77
2023/05/22 11:20:16;;;;;;;10.27;9.18;;;;;;;;;;4980117;28;99346;-78
2023/05/22 11:22:49;;;;;;;10.55;9.18;;;;;;;;;;4970370;28;102815;-76
2023/05/22 11:25:16;;;;;;;11.63;8.50;;;;;;;;;;4989086;28;98553;-79
2023/05/22 11:27:45;;;;;;;10.70;8.90;;;;;;;;;;4973464;28;99512;-77
2023/05/22 11:30:11;;;;;;;10.00;8.57;;;;;;;;;;4973528;28;99955;-76
2023/05/22 11:32:40;;;;;;;8.70;7.88;;;;;;;;;;4969252;28;99949;-78
2023/05/22 11:35:09;;;;;;;13.25;9.45;;;;;;;;;;4969834;28;98888;-77
2023/05/22 11:37:38;;;;;;;12.90;9.18;;;;;;;;;;4969663;28;98310;-78
2023/05/22 11:40:05;;;;;;;13.00;9.52;;;;;;;;;;4970005;28;99614;-77
2023/05/22 11:42:32;;;;;;;12.32;10.40;;;;;;;;;;4962174;28;100035;-77
2023/05/22 11:44:59;;;;;;;12.43;11.13;;;;;;;;;;4961296;28;98255;-76
2023/05/22 11:47:25;;;;;;;13.45;11.73;;;;;;;;;;4967218;28;98681;-77
2023/05/22 11:49:53;;;;;;;13.73;11.63;;;;;;;;;;4951689;28;98795;-77
2023/05/22 11:52:22;;;;;;;16.38;10.45;;;;;;;;;;4957004;28;98346;-77
2023/05/22 11:54:50;;;;;;;14.00;12.60;;;;;;;;;;4949690;28;100456;-79
2023/05/22 11:57:17;;;;;;;20.48;14.38;;;;;;;;;;4950176;28;97978;-77
2023/05/22 11:59:45;;;;;;;19.80;12.00;;;;;;;;;;4949960;28;99564;-78
2023/05/22 12:02:12;;;;;;;16.67;11.95;;;;;;;;;;4950638;28;99369;-77
2023/05/22 12:04:39;;;;;;;17.20;14.50;;;;;;;;;;4965400;28;98351;-77
2023/05/22 12:07:06;;;;;;;14.68;12.50;;;;;;;;;;4969254;28;99593;-78
2023/05/22 12:09:33;;;;;;;13.80;11.90;;;;;;;;;;4970079;28;99878;-77
2023/05/22 12:12:00;;;;;;;12.18;10.75;;;;;;;;;;4969627;28;99182;-77
2023/05/22 12:14:27;;;;;;;12.48;10.23;;;;;;;;;;4972381;28;99882;-77
2023/05/22 12:16:54;;;;;;;12.93;8.90;;;;;;;;;;4970180;28;98229;-78
2023/05/22 12:19:20;;;;;;;11.45;9.73;;;;;;;;;;4969484;28;98575;-77
2023/05/22 12:21:50;;;;;;;12.40;8.98;;;;;;;;;;4967822;28;98920;-78
2023/05/22 12:24:22;;;;;;;9.40;8.52;;;;;;;;;;4954488;28;98331;-77
2023/05/22 12:26:49;;;;;;;9.63;8.63;;;;;;;;;;4951443;28;98997;-77
2023/05/22 12:29:16;;;;;;;10.25;8.38;;;;;;;;;;4968576;28;99020;-76
2023/05/22 12:31:43;;;;;;;12.82;8.23;;;;;;;;;;4970347;28;98655;-77
2023/05/22 12:34:17;;;;;;;10.27;8.23;;;;;;;;;;4969480;28;98859;-77
2023/05/22 12:36:45;;;;;;;8.30;7.53;;;;;;;;;;4972507;28;100378;-77
2023/05/22 12:39:15;;;;;;;10.65;8.02;;;;;;;;;;4970380;28;98814;-77
2023/05/22 12:41:44;;;;;;;12.35;7.88;;;;;;;;;;4970339;28;98996;-76
2023/05/22 12:44:11;;;;;;;11.02;8.57;;;;;;;;;;4971510;28;98264;-76
2023/05/22 12:46:37;;;;;;;9.20;8.38;;;;;;;;;;4974618;28;99455;-78
2023/05/22 12:49:05;;;;;;;11.80;9.68;;;;;;;;;;4967311;28;100450;-77
2023/05/22 12:51:34;;;;;;;14.45;10.85;;;;;;;;;;4969729;28;98282;-77
2023/05/22 12:54:01;;;;;;;13.32;11.10;;;;;;;;;;4969466;28;98398;-77
2023/05/22 12:56:28;;;;;;;13.80;10.00;;;;;;;;;;4967875;28;98961;-77
2023/05/22 12:58:55;;;;;;;17.85;11.40;;;;;;;;;;4969348;28;98642;-76
2023/05/22 13:01:23;;;;;;;12.68;11.05;;;;;;;;;;4961195;28;98918;-77
2023/05/22 13:03:50;;;;;;;13.20;11.00;;;;;;;;;;4948782;28;98460;-77
2023/05/22 13:06:17;;;;;;;14.23;11.23;;;;;;;;;;4960737;28;100747;-78
2023/05/22 13:08:44;;;;;;;15.20;10.00;;;;;;;;;;4964288;28;100228;-76
2023/05/22 13:11:12;;;;;;;13.15;11.10;;;;;;;;;;4965740;28;98270;-77
2023/05/22 13:13:42;;;;;;;18.75;11.07;;;;;;;;;;4954176;28;98282;-76
2023/05/22 13:16:09;;;;;;;16.90;11.05;;;;;;;;;;4967773;28;99848;-76
2023/05/22 13:18:37;;;;;;;23.25;11.52;;;;;;;;;;4971453;28;98427;-78
2023/05/22 13:21:05;;;;;;;15.90;11.15;;;;;;;;;;4966225;28;103814;-77
2023/05/22 13:23:31;;;;;;;11.10;9.48;;;;;;;;;;4963344;28;98463;-77
2023/05/22 13:26:00;;;;;;;16.83;10.38;;;;;;;;;;4959813;28;98706;-78
2023/05/22 13:28:27;;;;;;;11.27;9.35;;;;;;;;;;4964249;28;100023;-77
2023/05/22 13:30:57;;;;;;;10.23;9.13;;;;;;;;;;4967267;28;98264;-78
2023/05/22 13:33:26;;;;;;;23.27;8.95;;;;;;;;;;4955570;28;99527;-78
2023/05/22 13:35:53;;;;;;;17.48;8.77;;;;;;;;;;4967119;28;98945;-77
2023/05/22 13:38:20;;;;;;;14.00;9.20;;;;;;;;;;4960245;28;102228;-79
2023/05/22 13:40:46;;;;;;;14.50;9.73;;;;;;;;;;4979921;28;99422;-78
2023/05/22 13:43:14;;;;;;;17.40;8.23;;;;;;;;;;4975043;28;98947;-78
2023/05/22 13:45:41;;;;;;;11.00;8.10;;;;;;;;;;4966530;28;98541;-77
2023/05/22 13:48:08;;;;;;;8.52;7.07;;;;;;;;;;4968037;28;99113;-79
2023/05/22 13:50:35;;;;;;;13.95;7.20;;;;;;;;;;4961383;28;99114;-79
2023/05/22 13:53:02;;;;;;;9.68;8.05;;;;;;;;;;4968721;28;99395;-76
2023/05/22 13:55:30;;;;;;;11.15;7.53;;;;;;;;;;4968301;28;98077;-77
2023/05/22 13:57:56;;;;;;;9.93;7.10;;;;;;;;;;4965507;28;98244;-78
2023/05/22 14:00:23;;;;;;;13.95;6.82;;;;;;;;;;4965943;28;99539;-79
2023/05/22 14:02:49;;;;;;;11.10;6.93;;;;;;;;;;4971607;28;99881;-80
2023/05/22 14:05:17;;;;;;;11.15;7.00;;;;;;;;;;4966472;28;98654;-79
2023/05/22 14:07:51;;;;;;;8.73;6.32;;;;;;;;;;4976328;28;98833;-78
2023/05/22 14:10:18;;;;;;;12.07;6.80;;;;;;;;;;4974470;28;98371;-77
2023/05/22 14:12:45;;;;;;;6.50;6.00;;;;;;;;;;4962521;28;99682;-80
2023/05/22 14:15:12;;;;;;;6.68;6.07;;;;;;;;;;4963095;28;99561;-78
2023/05/22 14:17:38;;;;;;;17.88;6.85;;;;;;;;;;4955758;28;98545;-81
2023/05/22 14:20:06;;;;;;;7.80;6.50;;;;;;;;;;4962994;28;99853;-80
2023/05/22 14:22:33;;;;;;;10.13;7.90;;;;;;;;;;4962885;28;99669;-79
2023/05/22 14:25:20;;;;;;;8.73;6.28;;;;;;;;;;4968793;28;98233;-78